createdAt,value
2022-11-06T00:00:31.060Z,4.50
2022-11-06T00:01:06.049Z,4.50
2022-11-06T00:01:41.196Z,4.50
2022-11-06T00:02:20.584Z,4.50
2022-11-06T00:02:57.665Z,4.50
2022-11-06T00:03:32.792Z,4.50
2022-11-06T00:04:07.324Z,4.50
2022-11-06T00:04:41.417Z,4.50
2022-11-06T00:05:33.126Z,4.50
2022-11-06T00:06:25.564Z,4.50
2022-11-06T00:06:59.455Z,4.50
2022-11-06T00:07:33.889Z,4.50
2022-11-06T00:08:07.963Z,4.50
2022-11-06T00:08:42.897Z,4.40
2022-11-06T00:09:22.129Z,4.40
2022-11-06T00:09:56.279Z,4.40
2022-11-06T00:10:31.925Z,4.50
2022-11-06T00:11:09.814Z,4.40
2022-11-06T00:11:45.739Z,4.40
2022-11-06T00:12:19.402Z,4.40
2022-11-06T00:12:52.569Z,4.50
2022-11-06T00:13:27.453Z,4.50
2022-11-06T00:14:01.618Z,4.50
2022-11-06T00:14:36.662Z,4.50
2022-11-06T00:15:11.811Z,4.40
2022-11-06T00:15:46.432Z,4.40
2022-11-06T00:16:20.799Z,4.40
2022-11-06T00:16:54.135Z,4.40
2022-11-06T00:17:28.907Z,4.40
2022-11-06T00:18:04.632Z,4.50
2022-11-06T00:18:38.048Z,4.40
2022-11-06T00:19:13.416Z,4.50
2022-11-06T00:19:46.553Z,4.50
2022-11-06T00:20:20.810Z,4.50
2022-11-06T00:20:54.898Z,4.50
2022-11-06T00:21:28.807Z,4.50
2022-11-06T00:22:03.011Z,4.50
2022-11-06T00:22:39.271Z,4.50
2022-11-06T00:23:12.916Z,4.50
2022-11-06T00:23:46.653Z,4.50
2022-11-06T00:24:21.065Z,4.50
2022-11-06T00:24:54.451Z,4.50
2022-11-06T00:25:28.020Z,4.50
2022-11-06T00:26:01.648Z,4.50
2022-11-06T00:26:36.950Z,4.50
2022-11-06T00:27:10.567Z,4.50
2022-11-06T00:27:45.800Z,4.50
2022-11-06T00:28:19.507Z,4.50
2022-11-06T00:28:53.961Z,4.50
2022-11-06T00:29:27.806Z,4.50
2022-11-06T00:30:01.857Z,4.40
2022-11-06T00:30:38.458Z,4.40
2022-11-06T00:31:13.190Z,4.40
2022-11-06T00:31:47.232Z,4.40
2022-11-06T00:32:21.890Z,4.40
2022-11-06T00:32:55.517Z,4.40
2022-11-06T00:33:29.191Z,4.40
2022-11-06T00:34:04.867Z,4.40
2022-11-06T00:34:38.406Z,4.40
2022-11-06T00:35:13.043Z,4.40
2022-11-06T00:35:47.587Z,4.40
2022-11-06T00:36:22.222Z,4.40
2022-11-06T00:36:56.318Z,4.40
2022-11-06T00:37:29.899Z,4.40
2022-11-06T00:38:05.391Z,4.40
2022-11-06T00:38:38.497Z,4.40
2022-11-06T00:39:12.806Z,4.50
2022-11-06T00:39:46.749Z,4.50
2022-11-06T00:40:20.759Z,4.50
2022-11-06T00:40:55.681Z,4.50
2022-11-06T00:41:29.230Z,4.50
2022-11-06T00:42:03.931Z,4.50
2022-11-06T00:42:39.003Z,4.50
2022-11-06T00:43:11.900Z,4.40
2022-11-06T00:43:50.798Z,4.40
2022-11-06T00:44:23.858Z,4.50
2022-11-06T00:44:57.509Z,4.40
2022-11-06T00:45:31.499Z,4.40
2022-11-06T00:46:04.950Z,4.40
2022-11-06T00:46:39.278Z,4.40
2022-11-06T00:47:12.953Z,4.40
2022-11-06T00:47:47.765Z,4.40
2022-11-06T00:48:22.862Z,4.50
2022-11-06T00:48:56.494Z,4.50
2022-11-06T00:49:29.754Z,4.40
2022-11-06T00:50:04.530Z,4.50
2022-11-06T00:50:39.564Z,4.40
2022-11-06T00:51:14.091Z,4.40
2022-11-06T00:51:49.831Z,4.40
2022-11-06T00:52:23.119Z,4.40
2022-11-06T00:52:58.089Z,4.40
2022-11-06T00:53:33.465Z,4.40
2022-11-06T00:54:08.804Z,4.40
2022-11-06T00:54:42.700Z,4.40
2022-11-06T00:55:16.356Z,4.40
2022-11-06T00:55:51.278Z,4.40
2022-11-06T00:56:26.402Z,4.30
2022-11-06T00:57:00.016Z,4.40
2022-11-06T00:57:35.244Z,4.30
2022-11-06T00:58:08.694Z,4.30
2022-11-06T00:58:41.896Z,4.30
2022-11-06T00:59:15.629Z,4.30
2022-11-06T00:59:49.011Z,4.40
2022-11-06T01:00:24.102Z,4.30
2022-11-06T01:00:58.097Z,4.30
2022-11-06T01:01:34.581Z,4.30
2022-11-06T01:02:09.827Z,4.30
2022-11-06T01:02:44.256Z,4.40
2022-11-06T01:03:18.280Z,4.40
2022-11-06T01:03:54.125Z,4.40
2022-11-06T01:04:27.805Z,4.40
2022-11-06T01:05:01.327Z,4.30
2022-11-06T01:05:36.415Z,4.40
2022-11-06T01:06:10.058Z,4.40
2022-11-06T01:06:44.773Z,4.30
2022-11-06T01:07:18.826Z,4.30
2022-11-06T01:07:52.342Z,4.40
2022-11-06T01:08:25.936Z,4.40
2022-11-06T01:09:01.418Z,4.40
2022-11-06T01:09:34.724Z,4.40
2022-11-06T01:10:09.339Z,4.40
2022-11-06T01:10:44.318Z,4.40
2022-11-06T01:11:19.437Z,4.40
2022-11-06T01:12:14.170Z,4.40
2022-11-06T01:12:50.959Z,4.40
2022-11-06T01:13:25.004Z,4.40
2022-11-06T01:13:58.816Z,4.40
2022-11-06T01:14:34.730Z,4.40
2022-11-06T01:15:08.353Z,4.40
2022-11-06T01:15:42.820Z,4.40
2022-11-06T01:16:18.131Z,4.40
2022-11-06T01:16:52.579Z,4.40
2022-11-06T01:17:26.083Z,4.40
2022-11-06T01:17:59.139Z,4.40
2022-11-06T01:18:32.384Z,4.40
2022-11-06T01:19:06.758Z,4.40
2022-11-06T01:19:41.154Z,4.40
2022-11-06T01:20:15.061Z,4.50
2022-11-06T01:20:49.435Z,4.50
2022-11-06T01:21:25.617Z,4.40
2022-11-06T01:21:59.796Z,4.40
2022-11-06T01:22:34.483Z,4.40
2022-11-06T01:23:08.110Z,4.40
2022-11-06T01:23:43.489Z,4.40
2022-11-06T01:24:19.816Z,4.40
2022-11-06T01:24:53.533Z,4.40
2022-11-06T01:25:27.796Z,4.30
2022-11-06T01:26:04.530Z,4.30
2022-11-06T01:26:45.471Z,4.40
2022-11-06T01:27:32.910Z,4.30
2022-11-06T01:28:05.968Z,4.30
2022-11-06T01:28:40.897Z,4.40
2022-11-06T01:29:15.043Z,4.30
2022-11-06T01:29:50.124Z,4.30
2022-11-06T01:30:24.054Z,4.40
2022-11-06T01:30:57.161Z,4.40
2022-11-06T01:31:32.219Z,4.40
2022-11-06T01:32:05.599Z,4.40
2022-11-06T01:32:39.579Z,4.40
2022-11-06T01:33:13.759Z,4.40
2022-11-06T01:33:48.318Z,4.40
2022-11-06T01:34:22.082Z,4.40
2022-11-06T01:34:58.837Z,4.40
2022-11-06T01:35:33.355Z,4.40
2022-11-06T01:36:08.702Z,4.40
2022-11-06T01:36:42.693Z,4.40
2022-11-06T01:37:16.321Z,4.40
2022-11-06T01:37:50.920Z,4.40
2022-11-06T01:38:26.230Z,4.40
2022-11-06T01:39:03.228Z,4.40
2022-11-06T01:39:39.877Z,4.40
2022-11-06T01:40:13.078Z,4.40
2022-11-06T01:40:46.885Z,4.40
2022-11-06T01:41:21.466Z,4.40
2022-11-06T01:41:56.133Z,4.40
2022-11-06T01:42:29.920Z,4.40
2022-11-06T01:43:05.153Z,4.40
2022-11-06T01:43:46.412Z,4.40
2022-11-06T01:44:38.058Z,4.40
2022-11-06T01:45:22.954Z,4.40
2022-11-06T01:45:56.475Z,4.30
2022-11-06T01:46:31.887Z,4.40
2022-11-06T01:47:05.839Z,4.30
2022-11-06T01:47:39.981Z,4.30
2022-11-06T01:48:14.644Z,4.30
2022-11-06T01:48:51.386Z,4.30
2022-11-06T01:49:28.229Z,4.30
2022-11-06T01:50:03.922Z,4.30
2022-11-06T01:50:37.335Z,4.30
2022-11-06T01:51:12.399Z,4.30
2022-11-06T01:51:46.317Z,4.30
2022-11-06T01:52:20.373Z,4.30
2022-11-06T01:52:54.624Z,4.30
2022-11-06T01:53:28.141Z,4.30
2022-11-06T01:54:03.175Z,4.30
2022-11-06T01:54:37.804Z,4.30
2022-11-06T01:55:15.341Z,4.30
2022-11-06T01:55:53.184Z,4.30
2022-11-06T01:56:26.817Z,4.30
2022-11-06T01:57:01.869Z,4.30
2022-11-06T01:57:36.242Z,4.30
2022-11-06T01:58:11.602Z,4.30
2022-11-06T01:58:47.694Z,4.30
2022-11-06T01:59:22.774Z,4.20
2022-11-06T01:59:56.661Z,4.30
2022-11-06T02:00:38.295Z,4.20
2022-11-06T02:01:13.664Z,4.20
2022-11-06T02:01:47.469Z,4.20
2022-11-06T02:02:21.548Z,4.20
2022-11-06T02:02:55.990Z,4.20
2022-11-06T02:03:29.256Z,4.20
2022-11-06T02:04:07.915Z,4.20
2022-11-06T02:04:42.519Z,4.20
2022-11-06T02:05:16.157Z,4.20
2022-11-06T02:05:50.004Z,4.20
2022-11-06T02:06:23.546Z,4.10
2022-11-06T02:06:58.032Z,4.20
2022-11-06T02:07:32.225Z,4.10
2022-11-06T02:08:07.307Z,4.10
2022-11-06T02:08:41.932Z,4.10
2022-11-06T02:09:15.453Z,4.10
2022-11-06T02:09:49.989Z,4.10
2022-11-06T02:10:25.644Z,4.10
2022-11-06T02:11:01.443Z,4.10
2022-11-06T02:11:34.532Z,4.10
2022-11-06T02:12:18.563Z,4.10
2022-11-06T02:12:56.006Z,4.10
2022-11-06T02:13:34.634Z,4.10
2022-11-06T02:14:11.248Z,4.10
2022-11-06T02:14:49.136Z,4.10
2022-11-06T02:15:28.090Z,4.10
2022-11-06T02:16:05.743Z,4.10
2022-11-06T02:16:41.118Z,4.10
2022-11-06T02:17:19.475Z,4.10
2022-11-06T02:17:58.431Z,4.10
2022-11-06T02:18:42.342Z,4.10
2022-11-06T02:19:34.221Z,4.10
2022-11-06T02:20:10.434Z,4.10
2022-11-06T02:20:47.383Z,4.10
2022-11-06T02:21:36.506Z,4.10
2022-11-06T02:22:19.284Z,4.10
2022-11-06T02:23:03.166Z,4.10
2022-11-06T02:24:16.821Z,4.10
2022-11-06T02:25:09.199Z,4.10
2022-11-06T02:25:50.192Z,4.10
2022-11-06T02:26:33.577Z,4.10
2022-11-06T02:27:12.651Z,4.00
2022-11-06T02:27:49.445Z,4.00
2022-11-06T02:28:24.708Z,4.00
2022-11-06T02:29:00.927Z,4.00
2022-11-06T02:29:35.934Z,4.00
2022-11-06T02:30:10.341Z,4.00
2022-11-06T02:30:45.527Z,4.00
2022-11-06T02:31:24.123Z,4.00
2022-11-06T02:32:00.742Z,4.00
2022-11-06T02:32:40.427Z,4.00
2022-11-06T02:33:16.324Z,4.00
2022-11-06T02:33:52.940Z,4.00
2022-11-06T02:34:27.930Z,4.00
2022-11-06T02:35:02.219Z,4.00
2022-11-06T02:35:37.306Z,4.00
2022-11-06T02:36:13.584Z,4.10
2022-11-06T02:36:50.910Z,4.00
2022-11-06T02:37:27.419Z,4.10
2022-11-06T02:38:03.157Z,4.10
2022-11-06T02:38:40.685Z,4.10
2022-11-06T02:39:16.741Z,4.10
2022-11-06T02:39:53.431Z,4.10
2022-11-06T02:40:30.392Z,4.00
2022-11-06T02:41:06.770Z,4.00
2022-11-06T02:41:42.702Z,4.00
2022-11-06T02:42:19.100Z,4.00
2022-11-06T02:42:54.342Z,4.10
2022-11-06T02:43:28.945Z,4.10
2022-11-06T02:44:03.693Z,4.10
2022-11-06T02:44:38.145Z,4.00
2022-11-06T02:45:14.086Z,4.10
2022-11-06T02:45:51.206Z,4.10
2022-11-06T02:46:26.737Z,4.10
2022-11-06T02:47:04.877Z,4.10
2022-11-06T02:47:41.272Z,4.00
2022-11-06T02:48:16.598Z,4.00
2022-11-06T02:48:53.187Z,4.00
2022-11-06T02:49:30.386Z,4.00
2022-11-06T02:50:04.813Z,4.00
2022-11-06T02:50:43.607Z,4.00
2022-11-06T02:51:19.269Z,4.00
2022-11-06T02:51:55.728Z,4.00
2022-11-06T02:52:32.034Z,4.00
2022-11-06T02:53:06.601Z,4.00
2022-11-06T02:53:43.250Z,4.00
2022-11-06T02:54:17.426Z,4.00
2022-11-06T02:54:54.029Z,4.00
2022-11-06T02:55:28.825Z,4.00
2022-11-06T02:56:05.359Z,4.00
2022-11-06T02:56:43.410Z,4.00
2022-11-06T02:57:19.229Z,4.00
2022-11-06T02:57:55.269Z,4.00
2022-11-06T02:58:32.488Z,4.00
2022-11-06T02:59:07.244Z,4.00
2022-11-06T02:59:43.267Z,4.00
2022-11-06T03:00:25.967Z,4.00
2022-11-06T03:01:16.362Z,4.00
2022-11-06T03:01:51.855Z,4.00
2022-11-06T03:02:28.224Z,4.00
2022-11-06T03:03:04.594Z,4.00
2022-11-06T03:03:41.682Z,4.00
2022-11-06T03:04:19.874Z,4.00
2022-11-06T03:04:55.690Z,4.00
2022-11-06T03:05:33.379Z,4.00
2022-11-06T03:06:08.358Z,4.00
2022-11-06T03:06:45.672Z,4.00
2022-11-06T03:07:21.553Z,4.00
2022-11-06T03:07:57.904Z,4.00
2022-11-06T03:08:36.928Z,4.00
2022-11-06T03:09:11.199Z,4.00
2022-11-06T03:09:45.802Z,4.00
2022-11-06T03:10:19.401Z,4.00
2022-11-06T03:10:57.090Z,4.00
2022-11-06T03:11:33.239Z,4.00
2022-11-06T03:12:14.944Z,4.00
2022-11-06T03:12:56.965Z,4.00
2022-11-06T03:13:34.638Z,4.00
2022-11-06T03:14:10.556Z,4.00
2022-11-06T03:14:48.776Z,4.00
2022-11-06T03:15:23.838Z,4.00
2022-11-06T03:16:05.988Z,4.00
2022-11-06T03:16:44.666Z,4.00
2022-11-06T03:17:19.350Z,4.00
2022-11-06T03:17:58.115Z,4.00
2022-11-06T03:18:34.564Z,4.00
2022-11-06T03:19:13.226Z,4.00
2022-11-06T03:19:49.054Z,4.00
2022-11-06T03:20:28.775Z,4.00
2022-11-06T03:21:03.328Z,4.00
2022-11-06T03:21:40.589Z,4.00
2022-11-06T03:22:16.835Z,4.00
2022-11-06T03:22:54.348Z,4.00
2022-11-06T03:23:29.120Z,4.00
2022-11-06T03:24:05.129Z,4.00
2022-11-06T03:24:44.661Z,4.00
2022-11-06T03:25:20.529Z,3.90
2022-11-06T03:26:00.831Z,3.90
2022-11-06T03:26:38.390Z,3.90
2022-11-06T03:27:15.421Z,3.90
2022-11-06T03:27:51.372Z,3.90
2022-11-06T03:28:29.730Z,3.90
2022-11-06T03:29:08.571Z,3.80
2022-11-06T03:29:44.860Z,3.80
2022-11-06T03:30:18.014Z,3.80
2022-11-06T03:30:55.291Z,3.80
2022-11-06T03:31:31.250Z,3.80
2022-11-06T03:32:10.358Z,3.80
2022-11-06T03:32:47.075Z,3.80
2022-11-06T03:33:21.538Z,3.90
2022-11-06T03:33:56.737Z,3.90
2022-11-06T03:34:31.319Z,3.90
2022-11-06T03:35:08.667Z,3.90
2022-11-06T03:35:44.265Z,3.80
2022-11-06T03:36:19.957Z,3.80
2022-11-06T03:36:57.330Z,3.90
2022-11-06T03:37:34.426Z,3.80
2022-11-06T03:38:09.794Z,3.80
2022-11-06T03:38:46.134Z,3.80
2022-11-06T03:39:23.357Z,3.90
2022-11-06T03:39:59.822Z,3.80
2022-11-06T03:40:37.025Z,3.80
2022-11-06T03:41:13.022Z,3.90
2022-11-06T03:41:48.837Z,3.80
2022-11-06T03:42:25.662Z,3.80
2022-11-06T03:42:59.969Z,3.80
2022-11-06T03:43:35.829Z,3.80
2022-11-06T03:44:11.000Z,3.80
2022-11-06T03:44:47.165Z,3.80
2022-11-06T03:45:21.859Z,3.80
2022-11-06T03:45:58.064Z,3.80
2022-11-06T03:46:33.493Z,3.80
2022-11-06T03:47:09.892Z,3.80
2022-11-06T03:47:48.403Z,3.80
2022-11-06T03:48:24.815Z,3.80
2022-11-06T03:49:02.133Z,3.80
2022-11-06T03:49:39.351Z,3.80
2022-11-06T03:50:15.215Z,3.70
2022-11-06T03:50:51.428Z,3.70
2022-11-06T03:51:29.565Z,3.70
2022-11-06T03:52:07.381Z,3.70
2022-11-06T03:52:44.546Z,3.70
2022-11-06T03:53:27.806Z,3.70
2022-11-06T03:54:03.500Z,3.70
2022-11-06T03:54:39.969Z,3.70
2022-11-06T03:55:15.340Z,3.70
2022-11-06T03:55:53.555Z,3.70
2022-11-06T03:56:29.538Z,3.70
2022-11-06T03:57:06.017Z,3.70
2022-11-06T03:57:42.805Z,3.70
2022-11-06T03:58:18.834Z,3.70
2022-11-06T03:58:54.867Z,3.60
2022-11-06T03:59:31.182Z,3.60
2022-11-06T04:00:08.640Z,3.70
2022-11-06T04:00:50.003Z,3.60
2022-11-06T04:01:27.244Z,3.60
2022-11-06T04:02:03.021Z,3.60
2022-11-06T09:32:06.129Z,4.40
2022-11-06T09:32:39.245Z,4.40
2022-11-06T09:33:13.877Z,4.40
2022-11-06T09:33:48.590Z,4.30
2022-11-06T09:34:22.806Z,4.30
2022-11-06T09:34:56.950Z,4.30
2022-11-06T09:35:33.622Z,4.30
2022-11-06T09:36:08.534Z,4.20
2022-11-06T09:36:44.347Z,4.20
2022-11-06T09:37:17.139Z,4.30
2022-11-06T09:37:52.555Z,4.20
2022-11-06T09:38:25.741Z,4.30
2022-11-06T09:39:00.955Z,4.20
2022-11-06T09:39:34.605Z,4.20
2022-11-06T09:40:10.084Z,4.30
2022-11-06T09:40:48.398Z,4.20
2022-11-06T09:41:25.552Z,4.20
2022-11-06T09:42:00.654Z,4.20
2022-11-06T09:42:43.307Z,4.20
2022-11-06T09:43:50.415Z,4.20
2022-11-06T09:44:24.689Z,4.20
2022-11-06T09:45:04.267Z,4.20
2022-11-06T09:45:39.058Z,4.10
2022-11-06T09:46:18.605Z,4.10
2022-11-06T09:46:52.466Z,4.10
2022-11-06T09:47:32.209Z,4.10
2022-11-06T09:48:12.126Z,4.10
2022-11-06T09:48:48.364Z,4.10
2022-11-06T09:49:24.082Z,4.00
2022-11-06T09:49:58.653Z,4.00
2022-11-06T09:50:35.147Z,4.00
2022-11-06T09:51:16.726Z,4.00
2022-11-06T09:51:55.985Z,4.00
2022-11-06T09:52:34.328Z,4.00
2022-11-06T09:53:15.331Z,4.00
2022-11-06T09:53:53.306Z,4.10
2022-11-06T09:54:30.194Z,4.10
2022-11-06T09:55:07.467Z,4.10
2022-11-06T09:55:43.210Z,4.10
2022-11-06T09:56:18.998Z,4.10
2022-11-06T09:56:56.050Z,4.10
2022-11-06T09:57:35.012Z,4.10
2022-11-06T09:58:12.939Z,4.10
2022-11-06T09:58:47.879Z,4.10
2022-11-06T09:59:21.774Z,4.10
2022-11-06T09:59:56.224Z,4.20
2022-11-06T10:00:36.792Z,4.20
2022-11-06T10:01:22.058Z,4.20
2022-11-06T10:02:02.341Z,4.20
2022-11-06T10:02:40.605Z,4.30
2022-11-06T10:03:17.339Z,4.30
2022-11-06T10:03:55.149Z,4.30
2022-11-06T10:04:33.724Z,4.30
2022-11-06T10:05:13.368Z,4.30
2022-11-06T10:05:47.372Z,4.30
2022-11-06T10:06:21.486Z,4.30
2022-11-06T10:06:55.879Z,4.30
2022-11-06T10:07:31.055Z,4.30
2022-11-06T10:08:08.167Z,4.30
2022-11-06T10:08:42.842Z,4.30
2022-11-06T10:09:18.715Z,4.30
2022-11-06T10:09:51.892Z,4.40
2022-11-06T10:10:30.432Z,4.40
2022-11-06T10:11:06.851Z,4.40
2022-11-06T10:11:45.837Z,4.40
2022-11-06T10:12:22.665Z,4.40
2022-11-06T10:13:17.448Z,4.40
2022-11-06T10:13:57.004Z,4.30
2022-11-06T10:14:37.341Z,4.40
2022-11-06T10:15:18.095Z,4.40
2022-11-06T10:15:54.187Z,4.40
2022-11-06T10:16:31.554Z,4.40
2022-11-06T10:17:11.442Z,4.40
2022-11-06T10:17:51.266Z,4.40
2022-11-06T10:18:31.966Z,4.40
2022-11-06T10:19:10.710Z,4.40
2022-11-06T10:19:48.385Z,4.50
2022-11-06T10:20:27.543Z,4.50
2022-11-06T10:21:06.415Z,4.50
2022-11-06T10:21:46.450Z,4.50
2022-11-06T10:22:25.662Z,4.50
2022-11-06T10:23:04.273Z,4.50
2022-11-06T10:23:41.322Z,4.50
2022-11-06T10:24:19.057Z,4.50
2022-11-06T10:24:57.373Z,4.50
2022-11-06T10:25:38.210Z,4.50
2022-11-06T10:26:14.802Z,4.60
2022-11-06T10:26:51.743Z,4.60
2022-11-06T10:27:28.944Z,4.60
2022-11-06T10:28:04.539Z,4.60
2022-11-06T10:28:55.673Z,4.60
2022-11-06T10:29:37.095Z,4.60
2022-11-06T10:30:12.329Z,4.60
2022-11-06T10:30:50.156Z,4.60
2022-11-06T10:31:29.457Z,4.70
2022-11-06T10:32:11.609Z,4.70
2022-11-06T10:33:04.873Z,4.70
2022-11-06T10:33:45.172Z,4.70
2022-11-06T10:34:22.240Z,4.70
2022-11-06T10:34:59.032Z,4.60
2022-11-06T10:35:37.909Z,4.50
2022-11-06T10:36:14.117Z,4.50
2022-11-06T10:36:50.989Z,4.50
2022-11-06T10:37:26.549Z,4.50
2022-11-06T10:38:05.048Z,4.50
2022-11-06T10:38:45.503Z,4.50
2022-11-06T10:41:01.811Z,4.50
2022-11-06T10:42:53.988Z,4.50
2022-11-06T10:43:37.204Z,4.50
2022-11-06T10:44:32.455Z,4.60
2022-11-06T10:45:22.465Z,4.60
2022-11-06T10:45:59.885Z,4.60
2022-11-06T10:46:55.364Z,4.60
2022-11-06T10:47:31.527Z,4.60
2022-11-06T10:48:54.368Z,4.60
2022-11-06T10:52:45.681Z,4.60
2022-11-06T10:56:38.683Z,4.60
2022-11-06T10:57:38.873Z,4.50
2022-11-06T10:58:14.841Z,4.50
2022-11-06T10:58:49.787Z,4.50
2022-11-06T10:59:24.148Z,4.40
2022-11-06T10:59:58.709Z,4.40
2022-11-06T11:00:33.024Z,4.40
2022-11-06T11:01:09.787Z,4.30
2022-11-06T11:01:44.760Z,4.30
2022-11-06T11:02:24.656Z,4.30
2022-11-06T11:03:01.867Z,4.30
2022-11-06T11:03:37.160Z,4.20
2022-11-06T11:04:10.642Z,4.20
2022-11-06T11:04:45.997Z,4.20
2022-11-06T11:05:20.801Z,4.20
2022-11-06T11:05:56.409Z,4.20
2022-11-06T11:06:30.498Z,4.20
2022-11-06T11:07:15.360Z,4.20
2022-11-06T11:07:51.813Z,4.10
2022-11-06T11:08:37.072Z,4.10
2022-11-06T11:09:28.300Z,4.10
2022-11-06T11:10:25.343Z,4.10
2022-11-06T11:11:26.225Z,4.10
2022-11-06T11:12:35.313Z,4.10
2022-11-06T11:13:26.148Z,4.20
2022-11-06T11:14:44.420Z,4.20
2022-11-06T11:15:20.249Z,4.20
2022-11-06T11:16:07.866Z,4.20
2022-11-06T11:16:43.287Z,4.30
2022-11-06T11:17:21.599Z,4.30
2022-11-06T11:18:09.398Z,4.30
2022-11-06T11:18:44.106Z,4.30
2022-11-06T11:19:24.854Z,4.30
2022-11-06T11:20:00.017Z,4.30
2022-11-06T11:20:35.323Z,4.30
2022-11-06T11:21:15.251Z,4.40
2022-11-06T11:21:54.689Z,4.40
2022-11-06T11:22:32.960Z,4.40
2022-11-06T11:23:09.156Z,4.40
2022-11-06T11:23:42.768Z,4.40
2022-11-06T11:24:17.986Z,4.40
2022-11-06T11:25:02.318Z,4.40
2022-11-06T11:25:38.941Z,4.40
2022-11-06T11:26:19.341Z,4.40
2022-11-06T11:26:56.154Z,4.30
2022-11-06T11:27:30.713Z,4.30
2022-11-06T11:28:05.978Z,4.40
2022-11-06T11:28:42.595Z,4.40
2022-11-06T11:29:17.795Z,4.40
2022-11-06T11:29:52.585Z,4.40
2022-11-06T11:30:26.614Z,4.40
2022-11-06T11:31:06.365Z,4.40
2022-11-06T11:31:40.586Z,4.40
2022-11-06T11:32:15.295Z,4.40
2022-11-06T11:32:50.349Z,4.40
2022-11-06T11:33:26.402Z,4.40
2022-11-06T11:34:02.038Z,4.40
2022-11-06T11:34:39.865Z,4.40
2022-11-06T11:35:19.742Z,4.40
2022-11-06T11:35:54.240Z,4.40
2022-11-06T11:36:48.372Z,4.40
2022-11-06T11:37:27.969Z,4.40
2022-11-06T11:38:07.381Z,4.40
2022-11-06T11:38:43.682Z,4.40
2022-11-06T11:39:19.528Z,4.40
2022-11-06T11:39:53.568Z,4.40
2022-11-06T11:40:36.783Z,4.30
2022-11-06T11:41:15.337Z,4.30
2022-11-06T11:41:50.639Z,4.30
2022-11-06T11:42:26.797Z,4.30
2022-11-06T11:43:16.652Z,4.30
2022-11-06T11:43:57.362Z,4.30
2022-11-06T11:44:33.035Z,4.30
2022-11-06T11:45:17.344Z,4.30
2022-11-06T11:46:15.760Z,4.30
2022-11-06T11:46:50.412Z,4.30
2022-11-06T11:47:25.366Z,4.40
2022-11-06T11:48:12.587Z,4.40
2022-11-06T11:48:49.312Z,4.40
2022-11-06T11:49:26.571Z,4.40
2022-11-06T11:50:18.639Z,4.50
2022-11-06T11:50:52.700Z,4.50
2022-11-06T11:51:29.102Z,4.50
2022-11-06T11:52:04.226Z,4.50
2022-11-06T11:52:42.661Z,4.60
2022-11-06T11:53:20.329Z,4.60
2022-11-06T11:53:55.651Z,4.60
2022-11-06T11:54:33.037Z,4.60
2022-11-06T11:55:15.909Z,4.60
2022-11-06T11:55:53.577Z,4.70
2022-11-06T11:57:02.496Z,4.70
2022-11-06T11:57:25.891Z,4.60
2022-11-06T11:58:01.263Z,4.50
2022-11-06T11:58:36.621Z,4.50
2022-11-06T11:59:16.670Z,4.50
2022-11-06T11:59:53.004Z,4.50
2022-11-06T12:00:27.718Z,4.40
2022-11-06T12:01:05.231Z,4.40
2022-11-06T12:01:41.842Z,4.40
2022-11-06T12:02:19.800Z,4.40
2022-11-06T12:03:00.787Z,4.40
2022-11-06T12:03:36.053Z,4.40
2022-11-06T12:04:16.335Z,4.40
2022-11-06T12:04:51.855Z,4.40
2022-11-06T12:05:29.428Z,4.40
2022-11-06T12:06:07.434Z,4.40
2022-11-06T12:06:51.358Z,4.30
2022-11-06T12:07:27.289Z,4.30
2022-11-06T12:08:02.649Z,4.30
2022-11-06T12:08:36.880Z,4.20
2022-11-06T12:09:12.322Z,4.20
2022-11-06T12:09:47.050Z,4.20
2022-11-06T12:10:23.750Z,4.10
2022-11-06T12:11:02.338Z,4.20
2022-11-06T12:11:37.398Z,4.20
2022-11-06T12:12:21.985Z,4.20
2022-11-06T12:12:55.832Z,4.20
2022-11-06T12:13:30.941Z,4.20
2022-11-06T12:14:26.650Z,4.20
2022-11-06T12:15:07.575Z,4.20
2022-11-06T12:15:46.851Z,4.30
2022-11-06T12:16:21.635Z,4.30
2022-11-06T12:16:59.632Z,4.30
2022-11-06T12:17:35.351Z,4.30
2022-11-06T12:18:12.541Z,4.30
2022-11-06T12:18:48.295Z,4.30
2022-11-06T12:19:22.961Z,4.30
2022-11-06T12:20:02.546Z,4.30
2022-11-06T12:21:06.443Z,4.40
2022-11-06T12:22:15.105Z,4.40
2022-11-06T12:23:28.461Z,4.40
2022-11-06T12:26:09.622Z,4.50
2022-11-06T12:26:59.168Z,4.50
2022-11-06T12:27:48.406Z,4.50
2022-11-06T12:29:05.485Z,4.50
2022-11-06T12:29:37.740Z,4.40
2022-11-06T12:30:13.866Z,4.40
2022-11-06T12:30:49.558Z,4.40
2022-11-06T12:31:29.277Z,4.40
2022-11-06T12:32:05.925Z,4.40
2022-11-06T12:33:01.188Z,4.40
2022-11-06T12:34:04.677Z,4.40
2022-11-06T12:34:36.347Z,4.40
2022-11-06T12:35:13.955Z,4.40
2022-11-06T12:35:50.003Z,4.40
2022-11-06T12:36:25.551Z,4.50
2022-11-06T12:37:07.039Z,4.40
2022-11-06T12:37:45.418Z,4.40
2022-11-06T12:38:23.094Z,4.40
2022-11-06T12:38:59.939Z,4.40
2022-11-06T12:39:35.486Z,4.40
2022-11-06T12:40:23.680Z,4.40
2022-11-06T12:41:02.096Z,4.40
2022-11-06T12:41:39.319Z,4.40
2022-11-06T12:42:16.050Z,4.40
2022-11-06T12:42:56.822Z,4.40
2022-11-06T12:43:34.815Z,4.40
2022-11-06T12:44:11.252Z,4.40
2022-11-06T12:44:48.452Z,4.40
2022-11-06T12:45:24.565Z,4.40
2022-11-06T12:46:10.757Z,4.40
2022-11-06T12:46:49.031Z,4.30
2022-11-06T12:47:29.520Z,4.30
2022-11-06T12:48:08.584Z,4.30
2022-11-06T12:48:50.833Z,4.30
2022-11-06T12:49:31.608Z,4.30
2022-11-06T12:50:14.442Z,4.20
2022-11-06T12:50:50.724Z,4.20
2022-11-06T12:51:29.485Z,4.20
2022-11-06T12:52:10.745Z,4.20
2022-11-06T12:53:03.424Z,4.20
2022-11-06T12:53:48.490Z,4.20
2022-11-06T12:54:30.695Z,4.30
2022-11-06T12:55:10.857Z,4.20
2022-11-06T12:55:50.862Z,4.30
2022-11-06T12:56:29.332Z,4.30
2022-11-06T12:57:09.620Z,4.30
2022-11-06T12:57:52.993Z,4.30
2022-11-06T12:58:42.482Z,4.30
2022-11-06T12:59:24.445Z,4.30
2022-11-06T13:00:08.651Z,4.30
2022-11-06T13:00:53.357Z,4.40
2022-11-06T13:01:35.435Z,4.40
2022-11-06T13:02:20.974Z,4.30
2022-11-06T13:03:03.084Z,4.30
2022-11-06T13:03:50.926Z,4.30
2022-11-06T13:04:30.625Z,4.30
2022-11-06T13:05:06.519Z,4.20
2022-11-06T13:05:46.152Z,4.20
2022-11-06T13:06:22.949Z,4.20
2022-11-06T13:07:22.068Z,4.20
2022-11-06T13:08:16.983Z,4.10
2022-11-06T13:08:55.316Z,4.10
2022-11-06T13:09:32.397Z,4.00
2022-11-06T13:10:16.596Z,4.00
2022-11-06T13:10:58.493Z,4.00
2022-11-06T13:11:36.627Z,4.00
2022-11-06T13:12:15.385Z,4.00
2022-11-06T13:12:54.428Z,4.00
2022-11-06T13:13:32.743Z,3.90
2022-11-06T13:14:11.581Z,4.00
2022-11-06T13:14:52.768Z,4.00
2022-11-06T13:15:32.325Z,3.90
2022-11-06T13:16:10.004Z,4.00
2022-11-06T13:16:50.197Z,3.90
2022-11-06T13:17:26.180Z,3.90
2022-11-06T13:18:04.093Z,3.90
2022-11-06T13:18:40.021Z,3.90
2022-11-06T13:19:16.571Z,3.90
2022-11-06T13:19:55.280Z,3.90
2022-11-06T13:20:30.814Z,3.90
2022-11-06T13:21:08.267Z,3.90
2022-11-06T13:21:57.123Z,3.90
2022-11-06T13:22:33.446Z,3.90
2022-11-06T13:23:10.266Z,3.90
2022-11-06T13:23:49.250Z,3.90
2022-11-06T13:24:26.054Z,3.90
2022-11-06T13:25:03.946Z,3.90
2022-11-06T13:25:39.940Z,4.00
2022-11-06T13:26:18.179Z,4.00
2022-11-06T13:26:54.735Z,4.00
2022-11-06T13:27:33.495Z,4.00
2022-11-06T13:28:13.382Z,4.00
2022-11-06T13:28:50.538Z,4.10
2022-11-06T13:29:25.250Z,4.00
2022-11-06T13:30:04.082Z,4.10
2022-11-06T13:30:39.803Z,4.10
2022-11-06T13:31:19.443Z,4.10
2022-11-06T13:31:55.581Z,4.10
2022-11-06T13:32:32.485Z,4.10
2022-11-06T13:33:07.573Z,4.10
2022-11-06T13:33:44.116Z,4.00
2022-11-06T13:34:19.498Z,4.00
2022-11-06T13:34:56.920Z,4.00
2022-11-06T13:35:31.793Z,3.90
2022-11-06T13:36:08.156Z,3.90
2022-11-06T13:36:41.842Z,3.90
2022-11-06T13:37:17.886Z,3.90
2022-11-06T13:37:51.843Z,3.90
2022-11-06T13:38:29.681Z,3.90
2022-11-06T13:39:07.417Z,4.00
2022-11-06T13:39:43.408Z,4.00
2022-11-06T13:40:23.851Z,4.00
2022-11-06T13:41:03.713Z,4.10
2022-11-06T13:41:37.926Z,4.10
2022-11-06T13:42:16.722Z,4.10
2022-11-06T13:42:52.384Z,4.10
2022-11-06T13:43:30.701Z,4.10
2022-11-06T13:44:04.784Z,4.10
2022-11-06T13:44:42.619Z,4.10
2022-11-06T13:45:17.323Z,4.20
2022-11-06T13:45:54.695Z,4.20
2022-11-06T13:46:31.530Z,4.20
2022-11-06T13:47:09.402Z,4.20
2022-11-06T13:47:52.395Z,4.20
2022-11-06T13:48:37.052Z,4.20
2022-11-06T13:49:18.169Z,4.20
2022-11-06T13:49:57.351Z,4.20
2022-11-06T13:50:33.613Z,4.20
2022-11-06T13:51:13.901Z,4.30
2022-11-06T13:51:51.547Z,4.30
2022-11-06T13:52:31.318Z,4.30
2022-11-06T13:53:11.052Z,4.30
2022-11-06T13:53:52.940Z,4.30
2022-11-06T13:54:35.182Z,4.30
2022-11-06T13:55:14.143Z,4.30
2022-11-06T13:55:58.231Z,4.30
2022-11-06T13:56:44.159Z,4.30
2022-11-06T13:57:31.748Z,4.30
2022-11-06T13:58:22.734Z,4.40
2022-11-06T13:59:04.502Z,4.40
2022-11-06T13:59:55.636Z,4.40
2022-11-06T14:00:43.928Z,4.40
2022-11-06T14:01:30.570Z,4.40
2022-11-06T14:02:13.842Z,4.50
2022-11-06T14:03:09.667Z,4.50
2022-11-06T14:03:54.067Z,4.50
2022-11-06T14:04:56.060Z,4.50
2022-11-06T14:06:00.591Z,4.50
2022-11-06T14:06:37.202Z,4.60
2022-11-06T14:07:11.244Z,4.60